Rouen Airport

LFOP · Seine-Maritime, Normandy, 法国

METAR的历史 LFOP · Rouen Airport

下面你可以看到过去几天的METARs。 选择年份以浏览从2007年开始的旧METAR。

2022年12月4日

时间 代码 天气 温度 能见度 天花板 METAR/SPECI
22:00
I
1 °C 6 km 800 ft 050° 050° 7 kt METAR LFOP 042100Z AUTO 05007KT 6000 OVC008 01/00 Q1015 NOSIG
21:30
I
1 °C 6 km 800 ft 050° 050° 8 kt METAR LFOP 042030Z AUTO 05008KT 6000 OVC008 01/00 Q1015 NOSIG
21:00
I
1 °C 6 km 700 ft 050° 050° 9 kt METAR LFOP 042000Z AUTO 05009KT 6000 OVC007 01/00 Q1015 NOSIG
20:30
I
1 °C 5 km 600 ft 040° 040° 9 kt METAR LFOP 041930Z AUTO 04009KT 5000 BR OVC006 01/00 Q1015 NOSIG
20:00
I
1 °C 4,8 km 500 ft 040° 040° 9 kt METAR LFOP 041900Z AUTO 04009KT 4800 BR OVC005 01/00 Q1015 BECMG 8000 NSW
19:30
L
1 °C 4,6 km 400 ft 040° 040° 8 kt METAR LFOP 041830Z AUTO 04008KT 4600 BR OVC004 01/01 Q1014 TEMPO OVC006 BECMG 8000 NSW
19:00
L
1 °C 3,8 km 400 ft 030° 030° 7 kt METAR LFOP 041800Z AUTO 03007KT 3800 BR BKN004 OVC008 01/01 Q1014 TEMPO OVC006 BECMG 8000 NSW
18:30
I
1 °C 3,9 km 800 ft 040° 040° 6 kt METAR LFOP 041730Z AUTO 04006KT 3900 BR OVC008 01/01 Q1014 BECMG 8000 NSW
18:00
M
2 °C 5 km 1.000 ft 060° 060° 8 kt METAR LFOP 041700Z AUTO 06008KT 5000 BR OVC010 02/00 Q1014 NOSIG
17:30
M
2 °C 9 km 1.100 ft 050° 050° 8 kt METAR LFOP 041630Z AUTO 05008KT 9000 OVC011 02/M00 Q1013 BECMG OVC007
17:00
M
2 °C 9 km 1.100 ft 060° 060° 8 kt METAR LFOP 041600Z AUTO 06008KT 9000 OVC011 02/M00 Q1013 BECMG OVC007
16:30
M
2 °C 9 km 1.000 ft 060° 060° 8 kt METAR LFOP 041530Z AUTO 06008KT 040V100 9000 BKN010 OVC014 02/M00 Q1013 NOSIG
16:00
M
2 °C 9 km 1.100 ft 070° 070° 8 kt METAR LFOP 041500Z AUTO 07008KT 9000 OVC011 02/M00 Q1013 BECMG OVC007
15:30
M
2 °C 9 km 1.100 ft 060° 060° 10 kt METAR LFOP 041430Z AUTO 06010KT 9000 OVC011 02/00 Q1013 BECMG OVC007
15:00
M
2 °C 8 km 1.000 ft 060° 060° 9 kt METAR LFOP 041400Z AUTO 06009KT 8000 OVC010 02/00 Q1012 NOSIG
14:30
M
2 °C 9 km 1.000 ft 050° 050° 9 kt METAR LFOP 041330Z AUTO 05009KT 9000 OVC010 02/M00 Q1012 NOSIG
14:00
M
2 °C 9 km 1.100 ft 060° 060° 9 kt METAR LFOP 041300Z AUTO 06009KT 9000 OVC011 02/M00 Q1012 NOSIG
13:30
M
2 °C 10 km+ 1.100 ft 070° 070° 10 kt METAR LFOP 041230Z AUTO 07010KT 9999 OVC011 02/M00 Q1012 NOSIG
13:00
M
2 °C 9 km 1.100 ft 060° 060° 9 kt METAR LFOP 041200Z AUTO 06009KT 9000 OVC011 02/M00 Q1013 NOSIG
12:30
M
2 °C 9 km 1.000 ft 060° 060° 9 kt METAR LFOP 041130Z AUTO 06009KT 9000 OVC010 02/M00 Q1013 NOSIG
12:00
M
2 °C 10 km+ 1.000 ft 080° 080° 9 kt METAR LFOP 041100Z AUTO 08009KT 9999 OVC010 02/M01 Q1013 NOSIG
11:30
M
2 °C 10 km+ 1.100 ft 080° 080° 9 kt METAR LFOP 041030Z AUTO 08009KT 050V110 9999 OVC011 02/M01 Q1013 NOSIG
11:00
M
2 °C 10 km+ 1.100 ft 080° 080° 11 kt METAR LFOP 041000Z AUTO 08011KT 9999 OVC011 02/M01 Q1013 TEMPO OVC007
10:30
M
1 °C 10 km+ 1.100 ft 080° 080° 9 kt METAR LFOP 040930Z AUTO 08009KT 9999 OVC011 01/M01 Q1013 TEMPO OVC007
10:00
M
1 °C 10 km+ 1.000 ft 080° 080° 9 kt METAR LFOP 040900Z AUTO 08009KT 9999 OVC010 01/M01 Q1013 NOSIG
09:30
I
1 °C 9 km 900 ft 070° 070° 11 kt METAR LFOP 040830Z AUTO 07011KT 9000 OVC009 01/M01 Q1013 NOSIG
09:00
I
1 °C 8 km 700 ft 080° 080° 8 kt METAR LFOP 040800Z AUTO 08008KT 8000 OVC007 01/M01 Q1013 NOSIG
08:30
I
1 °C 8 km 700 ft 070° 070° 9 kt METAR LFOP 040730Z AUTO 07009KT 8000 OVC007 01/M01 Q1013 NOSIG
08:00
I
1 °C 8 km 700 ft 070° 070° 11 kt METAR LFOP 040700Z AUTO 07011KT 8000 OVC007 01/M01 Q1013 NOSIG
07:30
I
1 °C 8 km 800 ft 070° 070° 10 kt METAR LFOP 040630Z AUTO 07010KT 8000 OVC008 01/M01 Q1012 NOSIG
07:00
I
1 °C 9 km 800 ft 080° 080° 10 kt METAR LFOP 040600Z AUTO 08010KT 9000 OVC008 01/M01 Q1012
06:30
I
1 °C 9 km 800 ft 070° 070° 11 kt METAR LFOP 040530Z AUTO 07011KT 9000 OVC008 01/M01 Q1012
06:00
I
1 °C 9 km 800 ft 070° 070° 11 kt METAR LFOP 040500Z AUTO 07011KT 9000 OVC008 01/M00 Q1012
05:30
I
1 °C 9 km 800 ft 070° 070° 11 kt METAR LFOP 040430Z AUTO 07011KT 9000 OVC008 01/M00 Q1012
05:00
I
1 °C 9 km 800 ft 070° 070° 10 kt METAR LFOP 040400Z AUTO 07010KT 9000 OVC008 01/M01 Q1012
04:30
I
1 °C 9 km 800 ft 070° 070° 11 kt METAR LFOP 040330Z AUTO 07011KT 9000 OVC008 01/M01 Q1012
04:00
I
1 °C 10 km+ 800 ft 070° 070° 10 kt METAR LFOP 040300Z AUTO 07010KT 9999 OVC008 01/M01 Q1012
03:30
I
1 °C 9 km 700 ft 070° 070° 9 kt METAR LFOP 040230Z AUTO 07009KT 9000 OVC007 01/M01 Q1013
03:00
I
1 °C 8 km 700 ft 050° 050° 9 kt METAR LFOP 040200Z AUTO 05009KT 8000 OVC007 01/M01 Q1013
02:30
I
1 °C 7 km 700 ft 070° 070° 9 kt METAR LFOP 040130Z AUTO 07009KT 7000 OVC007 01/M01 Q1013
02:00
I
1 °C 7 km 700 ft 070° 070° 9 kt METAR LFOP 040100Z AUTO 07009KT 7000 OVC007 01/M00 Q1013
01:30
I
1 °C 7 km 700 ft 060° 060° 10 kt METAR LFOP 040030Z AUTO 06010KT 7000 OVC007 01/M00 Q1013
01:00
I
1 °C 7 km 700 ft 060° 060° 11 kt METAR LFOP 040000Z AUTO 06011KT 7000 OVC007 01/M01 Q1013
00:30
I
1 °C 7 km 700 ft 070° 070° 10 kt METAR LFOP 032330Z AUTO 07010KT 7000 OVC007 01/M01 Q1014
00:00
I
1 °C 7 km 700 ft 050° 050° 13 kt METAR LFOP 032300Z AUTO 05013KT 7000 OVC007 01/M01 Q1013

2022年12月3日

时间 代码 天气 温度 能见度 天花板 METAR/SPECI
23:30
I
1 °C 7 km 700 ft 060° 060° 10 kt METAR LFOP 032230Z AUTO 06010KT 7000 OVC007 01/M00 Q1014
23:00
I
1 °C 8 km 800 ft 070° 070° 11 kt METAR LFOP 032200Z AUTO 07011KT 8000 OVC008 01/M01 Q1014
22:30
I
1 °C 9 km 800 ft 070° 070° 10 kt METAR LFOP 032130Z AUTO 07010KT 9000 OVC008 01/M00 Q1014
22:00
I
1 °C 8 km 800 ft 060° 060° 12 kt METAR LFOP 032100Z AUTO 06012KT 8000 OVC008 01/M01 Q1014 TEMPO OVC004
21:30
I
1 °C 8 km 800 ft 060° 060° 10 kt METAR LFOP 032030Z AUTO 06010KT 8000 OVC008 01/M01 Q1014 TEMPO OVC004
21:00
I
1 °C 8 km 700 ft 070° 070° 8 kt METAR LFOP 032000Z AUTO 07008KT 8000 OVC007 01/M00 Q1014 NOSIG
20:30
I
1 °C 8 km 800 ft 060° 060° 10 kt METAR LFOP 031930Z AUTO 06010KT 8000 OVC008 01/M01 Q1014 NOSIG
20:00
I
1 °C 9 km 800 ft 070° 070° 10 kt METAR LFOP 031900Z AUTO 07010KT 9000 OVC008 01/M01 Q1014 NOSIG
19:30
I
1 °C 9 km 800 ft 050° 050° 11 kt METAR LFOP 031830Z AUTO 05011KT 9000 OVC008 01/M01 Q1014 NOSIG
19:00
I
1 °C 9 km 800 ft 060° 060° 12 kt METAR LFOP 031800Z AUTO 06012KT 9000 OVC008 01/M00 Q1014 NOSIG
18:30
I
1 °C 10 km+ 900 ft 060° 060° 8 kt METAR LFOP 031730Z AUTO 06008KT 9999 OVC009 01/M00 Q1015 NOSIG
18:00
I
1 °C 10 km+ 900 ft 060° 060° 10 kt METAR LFOP 031700Z AUTO 06010KT 9999 OVC009 01/M00 Q1015 TEMPO OVC012
17:30
I
2 °C 10 km+ 900 ft 070° 070° 10 kt METAR LFOP 031630Z AUTO 07010KT 9999 OVC009 02/M00 Q1015 TEMPO OVC012
17:00
M
2 °C 10 km+ 1.000 ft 070° 070° 10 kt METAR LFOP 031600Z AUTO 07010KT 9999 OVC010 02/M00 Q1015 NOSIG
16:30
M
2 °C 10 km+ 1.000 ft 060° 060° 9 kt METAR LFOP 031530Z AUTO 06009KT 9999 OVC010 02/M00 Q1015 NOSIG
16:00
M
2 °C 10 km+ 1.100 ft 050° 050° 10 kt METAR LFOP 031500Z AUTO 05010KT 9999 OVC011 02/M00 Q1015 NOSIG
15:30
M
2 °C 10 km+ 1.200 ft 060° 060° 11 kt METAR LFOP 031430Z AUTO 06011KT 9999 OVC012 02/M00 Q1015 NOSIG
15:00
M
2 °C 10 km+ 1.200 ft 070° 070° 10 kt METAR LFOP 031400Z AUTO 07010KT 9999 OVC012 02/M00 Q1015 NOSIG
14:30
M
2 °C 10 km+ 1.300 ft 060° 060° 11 kt METAR LFOP 031330Z AUTO 06011KT 9999 OVC013 02/M00 Q1015 NOSIG
14:00
M
2 °C 10 km+ 1.200 ft 060° 060° 10 kt METAR LFOP 031300Z AUTO 06010KT 9999 OVC012 02/M01 Q1015 NOSIG
13:30
M
2 °C 10 km+ 1.200 ft 060° 060° 11 kt METAR LFOP 031230Z AUTO 06011KT 9999 OVC012 02/M00 Q1016 NOSIG
13:00
M
2 °C 10 km+ 1.200 ft 060° 060° 11 kt METAR LFOP 031200Z AUTO 06011KT 9999 OVC012 02/M01 Q1016 NOSIG
12:30
M
2 °C 10 km+ 1.200 ft 060° 060° 11 kt METAR LFOP 031130Z AUTO 06011KT 9999 OVC012 02/M00 Q1016 TEMPO OVC017
12:00
M
2 °C 9 km 1.200 ft 050° 050° 12 kt METAR LFOP 031100Z AUTO 05012KT 9000 OVC012 02/M01 Q1017 TEMPO OVC017
11:30
M
2 °C 10 km+ 1.200 ft 050° 050° 12 kt METAR LFOP 031030Z AUTO 05012KT 9999 OVC012 02/M01 Q1017 TEMPO OVC017
11:00
M
1 °C 10 km+ 1.200 ft 050° 050° 10 kt METAR LFOP 031000Z AUTO 05010KT 9999 OVC012 01/M01 Q1017 TEMPO 4000 DZ BR OVC017
10:30
M
1 °C 10 km+ 1.300 ft 050° 050° 12 kt METAR LFOP 030930Z AUTO 05012KT 9999 OVC013 01/M01 Q1017 TEMPO 4000 DZ BR OVC017
10:00
M
1 °C 10 km+ 1.300 ft 050° 050° 11 kt METAR LFOP 030900Z AUTO 05011KT 9999 OVC013 01/M01 Q1017 TEMPO 4000 DZ BR OVC008
09:30
M
1 °C 10 km+ 1.300 ft 060° 060° 10 kt METAR LFOP 030830Z AUTO 06010KT 9999 OVC013 01/M01 Q1017 TEMPO 4000 DZ BR OVC008
09:00
M
1 °C 10 km+ 1.300 ft 050° 050° 13 kt METAR LFOP 030800Z AUTO 05013KT 020V080 9999 OVC013 01/M01 Q1017 TEMPO 4000 DZ BR OVC008
08:30
M
1 °C 9 km 1.400 ft 050° 050° 11 kt METAR LFOP 030730Z AUTO 05011KT 9000 OVC014 01/M01 Q1017 TEMPO 4000 DZ BR OVC008
08:00
M
1 °C 7 km 1.100 ft 050° 050° 14 kt METAR LFOP 030700Z AUTO 05014KT 020V080 7000 OVC011 01/M01 Q1017 TEMPO 4000 DZ BR OVC008
07:30
M
1 °C 7 km 1.200 ft 060° 060° 13 kt METAR LFOP 030630Z AUTO 06013KT 7000 OVC012 01/M01 Q1017 TEMPO 4000 DZ BR OVC008
07:00
M
1 °C 7 km 1.000 ft 040° 040° 14 kt METAR LFOP 030600Z AUTO 04014KT 7000 BKN010 OVC014 01/M01 Q1017 TEMPO 4000 DZ BR
06:30
M
1 °C 7 km 1.100 ft 040° 040° 13 kt METAR LFOP 030530Z AUTO 04013KT 7000 OVC011 01/M00 Q1017
06:00
M
2 °C 7 km 1.300 ft 040° 040° 11 kt METAR LFOP 030500Z AUTO 04011KT 7000 BKN013 OVC021 02/M01 Q1018
05:30
M
2 °C 6 km 1.200 ft 040° 040° 12 kt METAR LFOP 030430Z AUTO 04012KT 6000 BKN012 OVC020 02/M01 Q1018
05:00
M
2 °C 7 km 1.200 ft 040° 040° 12 kt METAR LFOP 030400Z AUTO 04012KT 7000 -DZ OVC012 02/M00 Q1018
04:30
M
2 °C 7 km 1.100 ft 040° 040° 14 kt METAR LFOP 030330Z AUTO 04014KT 7000 OVC011 02/M01 Q1018
04:00
M
2 °C 7 km 1.100 ft 040° 040° 13 kt METAR LFOP 030300Z AUTO 04013KT 7000 OVC011 02/M00 Q1018
03:30
M
2 °C 6 km 1.100 ft 040° 040° 12 kt METAR LFOP 030230Z AUTO 04012KT 6000 OVC011 02/M01 Q1018
03:00
M
2 °C 7 km 1.200 ft 040° 040° 12 kt METAR LFOP 030200Z AUTO 04012KT 7000 OVC012 02/M00 Q1018
02:30
M
2 °C 7 km 1.200 ft 050° 050° 15 kt METAR LFOP 030130Z AUTO 05015KT 7000 OVC012 02/M00 Q1018
02:00
M
2 °C 9 km 1.500 ft 050° 050° 15 kt METAR LFOP 030100Z AUTO 05015KT 9000 FEW007 OVC015 02/M01 Q1018
01:30
I
2 °C 5 km 700 ft 040° 040° 15 kt METAR LFOP 030030Z AUTO 04015KT 5000 BR OVC007 02/01 Q1018
01:00
I
2 °C 6 km 700 ft 050° 050° 14 kt METAR LFOP 030000Z AUTO 05014KT 6000 OVC007 02/01 Q1019
00:30
I
2 °C 5 km 600 ft 040° 040° 13 kt METAR LFOP 022330Z AUTO 04013KT 5000 BR OVC006 02/01 Q1019
00:00
I
3 °C 5 km 700 ft 040° 040° 13 kt METAR LFOP 022300Z AUTO 04013KT 5000 BR OVC007 03/01 Q1019

2022年12月2日

时间 代码 天气 温度 能见度 天花板 METAR/SPECI
23:30
I
3 °C 6 km 700 ft 040° 040° 14 kt METAR LFOP 022230Z AUTO 04014KT 6000 OVC007 03/01 Q1019
23:00
I
3 °C 5 km 700 ft 040° 040° 11 kt METAR LFOP 022200Z AUTO 04011KT 5000 BR OVC007 03/01 Q1019
22:30
I
3 °C 6 km 700 ft 040° 040° 12 kt METAR LFOP 022130Z AUTO 04012KT 360V060 6000 OVC007 03/01 Q1019
22:00
I
2 °C 6 km 800 ft 040° 040° 10 kt METAR LFOP 022100Z AUTO 04010KT 6000 OVC008 02/01 Q1019 TEMPO 4000 DZ BR
21:30
I
2 °C 8 km 900 ft 040° 040° 11 kt METAR LFOP 022030Z AUTO 04011KT 8000 BKN009 OVC015 02/01 Q1019 TEMPO 4000 DZ BR
21:00
M
2 °C 9 km 1.100 ft 040° 040° 11 kt METAR LFOP 022000Z AUTO 04011KT 9000 OVC011 02/00 Q1019 TEMPO 4000 DZ BR OVC008
20:30
M
2 °C 8 km 1.100 ft 040° 040° 12 kt METAR LFOP 021930Z AUTO 04012KT 8000 OVC011 02/00 Q1019 TEMPO 4000 DZ BR OVC008
20:00
I
2 °C 6 km 900 ft 040° 040° 11 kt METAR LFOP 021900Z AUTO 04011KT 6000 OVC009 02/01 Q1019 TEMPO 4000 DZ BR
19:30
I
3 °C 6 km 900 ft 040° 040° 14 kt METAR LFOP 021830Z AUTO 04014KT 6000 OVC009 03/01 Q1019 TEMPO SCT013 OVC022
19:00
M
3 °C 7 km 1.100 ft 040° 040° 12 kt METAR LFOP 021800Z AUTO 04012KT 7000 OVC011 03/01 Q1019 TEMPO SCT013 OVC022
18:30
M
3 °C 8 km 1.200 ft 040° 040° 13 kt METAR LFOP 021730Z AUTO 04013KT 8000 OVC012 03/01 Q1019 BECMG BKN007
18:00
M
3 °C 8 km 1.200 ft 030° 030° 11 kt METAR LFOP 021700Z AUTO 03011KT 8000 OVC012 03/01 Q1019 BECMG BKN007
17:30
M
4 °C 9 km 1.900 ft 040° 040° 12 kt METAR LFOP 021630Z AUTO 04012KT 9000 BKN019 OVC027 04/00 Q1019 BECMG BKN007
17:00
V
4 °C 10 km+ 3.300 ft 040° 040° 13 kt METAR LFOP 021600Z AUTO 04013KT 9999 SCT025 BKN033 OVC040 04/M00 Q1019 BECMG BKN007
16:30
V
4 °C 10 km+ 4.200 ft 040° 040° 11 kt METAR LFOP 021530Z AUTO 04011KT 9999 FEW024 SCT033 BKN042 04/00 Q1019 BECMG BKN007
16:00
M
5 °C 10 km+ 2.600 ft 020° 020° 10 kt METAR LFOP 021500Z AUTO 02010KT 9999 OVC026 05/00 Q1019 BECMG BKN007
15:30
M
4 °C 9 km 1.800 ft 020° 020° 9 kt METAR LFOP 021430Z AUTO 02009KT 9000 BKN018 OVC027 04/01 Q1020 BECMG BKN007
15:00
M
5 °C 8 km 1.700 ft 030° 030° 12 kt METAR LFOP 021400Z AUTO 03012KT 8000 BKN017 OVC022 05/01 Q1020 NOSIG
14:30
M
6 °C 8 km 1.700 ft 360° 360° 10 kt METAR LFOP 021330Z AUTO 36010KT 8000 BKN017 BKN022 06/01 Q1020 NOSIG
14:00
M
5 °C 7 km - 020° 020° 8 kt METAR LFOP 021300Z AUTO 02008KT 7000 NSC 05/02 Q1020 NOSIG
13:30
V
5 °C 8 km - 010° 010° 9 kt METAR LFOP 021230Z AUTO 01009KT 8000 NSC 05/02 Q1021 NOSIG
13:00
V
5 °C 9 km - 020° 020° 6 kt METAR LFOP 021200Z AUTO 02006KT 9000 NSC 05/02 Q1021 BECMG BKN009
12:30
V
5 °C 8 km - 020° 020° 7 kt METAR LFOP 021130Z AUTO 02007KT 8000 NSC 05/01 Q1021 BECMG BKN009
12:00
V
4 °C 10 km+ 4.600 ft 020° 020° 7 kt METAR LFOP 021100Z AUTO 02007KT 9999 BKN046 OVC170 04/01 Q1022 BECMG BKN009
11:30
V
4 °C 9 km 4.800 ft 010° 010° 5 kt METAR LFOP 021030Z AUTO 01005KT 9000 FEW040 BKN048 BKN098 04/01 Q1022 BECMG BKN009
11:00
V
3 °C 8 km 3.900 ft 010° 010° 5 kt METAR LFOP 021000Z AUTO 01005KT 8000 OVC039 03/01 Q1022 BECMG BKN009

我们和第三方通过cookies跟踪您在我们网站上的互联网行为。如果你继续,我们认为你同意我们的饼干政策